Time;durP1;ratioP1;P1;durP2;ratioP2;P2;SDS_P1;SDS_P2;PMS_P1;PMS_P2;Temp;Humidity;BMP_temperature;BMP_pressure;BME280_temperature;BME280_humidity;BME280_pressure;Samples;Min_cycle;Max_cycle;Signal;HPM_P1;HPM_P2
2023/05/15 00:03:39;;;;;;;1.77;1.40;;;;;;;;;;8156261;28;20106;-72
2023/05/15 00:07:39;;;;;;;1.35;1.25;;;;;;;;;;8154102;28;20087;-72
2023/05/15 00:11:40;;;;;;;3.13;1.50;;;;;;;;;;8159315;28;20087;-72
2023/05/15 00:15:40;;;;;;;2.70;1.67;;;;;;;;;;8151238;28;20041;-72
2023/05/15 00:19:40;;;;;;;1.80;1.70;;;;;;;;;;8154725;28;20861;-72
2023/05/15 00:23:40;;;;;;;2.00;1.40;;;;;;;;;;8155790;28;20023;-72
2023/05/15 00:27:41;;;;;;;1.50;1.40;;;;;;;;;;8155828;28;20145;-72
2023/05/15 00:31:41;;;;;;;1.60;1.50;;;;;;;;;;8154169;28;20036;-72
2023/05/15 00:35:41;;;;;;;1.70;1.60;;;;;;;;;;8158885;28;20290;-72
2023/05/15 00:39:41;;;;;;;1.52;1.42;;;;;;;;;;8155234;28;20736;-72
2023/05/15 00:43:42;;;;;;;1.60;1.50;;;;;;;;;;8155745;28;20034;-71
2023/05/15 00:47:43;;;;;;;2.03;1.52;;;;;;;;;;8150893;28;20043;-72
2023/05/15 00:51:43;;;;;;;1.60;1.50;;;;;;;;;;8153870;28;20035;-72
2023/05/15 00:55:46;;;;;;;2.72;1.80;;;;;;;;;;8154390;28;20058;-72
2023/05/15 00:59:46;;;;;;;4.40;1.60;;;;;;;;;;8152050;28;20107;-72
2023/05/15 01:03:47;;;;;;;1.40;1.30;;;;;;;;;;8154434;28;20782;-72
2023/05/15 01:07:50;;;;;;;1.70;1.60;;;;;;;;;;8159232;28;20464;-72
2023/05/15 01:11:53;;;;;;;1.77;1.58;;;;;;;;;;8158351;28;20083;-71
2023/05/15 01:15:53;;;;;;;1.70;1.58;;;;;;;;;;8152214;28;21017;-72
2023/05/15 01:19:55;;;;;;;1.80;1.33;;;;;;;;;;8154176;28;20050;-72
2023/05/15 01:24:15;;;;;;;3.17;1.50;;;;;;;;;;8154049;28;20479;-72
2023/05/15 01:28:18;;;;;;;1.50;1.40;;;;;;;;;;8155332;28;20023;-72
2023/05/15 01:32:39;;;;;;;1.58;1.48;;;;;;;;;;8150200;28;20873;-72
2023/05/15 01:36:45;;;;;;;1.60;1.50;;;;;;;;;;8150966;28;20477;-72
2023/05/15 01:40:54;;;;;;;2.53;1.50;;;;;;;;;;8152770;28;20023;-72
2023/05/15 01:44:54;;;;;;;2.75;1.70;;;;;;;;;;8152872;28;20078;-72
2023/05/15 01:48:55;;;;;;;2.13;1.50;;;;;;;;;;8151002;28;20697;-72
2023/05/15 01:52:56;;;;;;;1.35;1.35;;;;;;;;;;8151928;28;20543;-73
2023/05/15 01:56:56;;;;;;;1.70;1.60;;;;;;;;;;8153767;28;20030;-72
2023/05/15 02:00:56;;;;;;;1.80;1.58;;;;;;;;;;8151634;28;20127;-72
2023/05/15 02:04:57;;;;;;;2.55;1.50;;;;;;;;;;8150661;28;20039;-72
2023/05/15 02:08:59;;;;;;;1.55;1.45;;;;;;;;;;8151610;28;20050;-72
2023/05/15 02:12:59;;;;;;;3.00;1.50;;;;;;;;;;8151869;28;20046;-72
2023/05/15 02:17:00;;;;;;;1.80;1.70;;;;;;;;;;8154049;28;20142;-72
2023/05/15 02:21:01;;;;;;;1.80;1.70;;;;;;;;;;8154391;28;20043;-72
2023/05/15 02:25:01;;;;;;;2.05;1.80;;;;;;;;;;8150892;28;20023;-73
2023/05/15 02:29:20;;;;;;;2.72;1.60;;;;;;;;;;8154277;28;20030;-72
2023/05/15 02:33:44;;;;;;;1.90;1.70;;;;;;;;;;8181917;28;20149;-72
2023/05/15 02:37:47;;;;;;;4.03;1.52;;;;;;;;;;8189514;28;20023;-73
2023/05/15 02:41:48;;;;;;;1.60;1.50;;;;;;;;;;8190370;28;20031;-72
2023/05/15 02:45:49;;;;;;;2.40;1.70;;;;;;;;;;8184172;28;20498;-72
2023/05/15 02:49:50;;;;;;;1.60;1.50;;;;;;;;;;8158092;29;20135;-72
2023/05/15 02:53:51;;;;;;;1.70;1.60;;;;;;;;;;8159609;29;20488;-72
2023/05/15 02:57:51;;;;;;;2.47;1.70;;;;;;;;;;8162124;28;20023;-72
2023/05/15 03:01:51;;;;;;;2.23;1.80;;;;;;;;;;8161959;28;20039;-72
2023/05/15 03:05:51;;;;;;;2.42;1.70;;;;;;;;;;8158696;28;20285;-72
2023/05/15 03:09:51;;;;;;;2.95;1.77;;;;;;;;;;8157268;28;20146;-73
2023/05/15 03:13:51;;;;;;;1.80;1.60;;;;;;;;;;8155825;28;20066;-72
2023/05/15 03:17:52;;;;;;;2.15;1.55;;;;;;;;;;8176584;28;20038;-72
2023/05/15 03:21:52;;;;;;;2.40;1.95;;;;;;;;;;8189255;28;20745;-72
2023/05/15 03:25:52;;;;;;;2.08;1.85;;;;;;;;;;8188180;28;20023;-72
2023/05/15 03:29:52;;;;;;;1.83;1.40;;;;;;;;;;8186202;28;20034;-72
2023/05/15 03:33:52;;;;;;;3.47;1.77;;;;;;;;;;8159689;28;20130;-71
2023/05/15 03:37:53;;;;;;;2.57;1.60;;;;;;;;;;8156281;28;20034;-71
2023/05/15 03:41:53;;;;;;;4.13;2.00;;;;;;;;;;8157565;28;20282;-72
2023/05/15 03:45:54;;;;;;;3.23;1.80;;;;;;;;;;8165914;28;20089;-72
2023/05/15 03:49:54;;;;;;;4.45;1.98;;;;;;;;;;8154398;28;20325;-72
2023/05/15 03:53:54;;;;;;;3.20;1.75;;;;;;;;;;8156901;28;20027;-72
2023/05/15 03:57:55;;;;;;;1.98;1.85;;;;;;;;;;8156113;29;20019;-72
2023/05/15 04:01:55;;;;;;;1.95;1.80;;;;;;;;;;8152528;28;20043;-72
2023/05/15 04:05:55;;;;;;;3.67;1.80;;;;;;;;;;8156266;28;20656;-72
2023/05/15 04:09:56;;;;;;;2.63;1.70;;;;;;;;;;8157957;28;20027;-72
2023/05/15 04:13:56;;;;;;;2.43;2.00;;;;;;;;;;8154775;29;20022;-72
2023/05/15 04:17:56;;;;;;;3.28;1.83;;;;;;;;;;8154827;28;20290;-72
2023/05/15 04:21:56;;;;;;;2.42;1.60;;;;;;;;;;8155310;28;20023;-72
2023/05/15 04:25:57;;;;;;;1.60;1.50;;;;;;;;;;8154247;28;20031;-71
2023/05/15 04:29:57;;;;;;;1.55;1.45;;;;;;;;;;8153928;28;20066;-72
2023/05/15 04:33:57;;;;;;;1.88;1.77;;;;;;;;;;8153409;28;20078;-72
2023/05/15 04:37:57;;;;;;;7.75;1.73;;;;;;;;;;8152906;28;20714;-71
2023/05/15 04:41:57;;;;;;;1.98;1.40;;;;;;;;;;8154469;28;20523;-72
2023/05/15 04:45:58;;;;;;;4.30;1.42;;;;;;;;;;8159543;28;20560;-72
2023/05/15 04:49:58;;;;;;;1.80;1.52;;;;;;;;;;8179907;28;20019;-73
2023/05/15 04:53:59;;;;;;;2.88;1.75;;;;;;;;;;8179293;28;21082;-72
2023/05/15 04:57:59;;;;;;;2.33;1.70;;;;;;;;;;8182627;28;20106;-73
2023/05/15 05:02:00;;;;;;;3.92;1.80;;;;;;;;;;8181804;28;20030;-72
2023/05/15 05:06:00;;;;;;;2.88;1.70;;;;;;;;;;8186484;28;20125;-73
2023/05/15 05:10:01;;;;;;;8.23;1.92;;;;;;;;;;8182964;28;20023;-72
2023/05/15 05:14:01;;;;;;;3.35;1.90;;;;;;;;;;8180265;28;20862;-73
2023/05/15 05:18:01;;;;;;;5.82;1.85;;;;;;;;;;8159741;28;20031;-73
2023/05/15 05:22:04;;;;;;;2.92;1.80;;;;;;;;;;8152539;28;20031;-73
2023/05/15 05:26:04;;;;;;;6.32;2.10;;;;;;;;;;8154538;28;20602;-73
2023/05/15 05:30:05;;;;;;;2.22;1.83;;;;;;;;;;8157144;28;20081;-73
2023/05/15 05:34:07;;;;;;;5.97;2.47;;;;;;;;;;8153444;28;20038;-73
2023/05/15 05:38:08;;;;;;;3.22;2.30;;;;;;;;;;8152341;28;20105;-73
2023/05/15 05:42:08;;;;;;;9.23;2.60;;;;;;;;;;8155075;28;20035;-73
2023/05/15 05:46:08;;;;;;;3.45;2.00;;;;;;;;;;8162221;28;20034;-73
2023/05/15 05:50:08;;;;;;;2.08;1.90;;;;;;;;;;8154652;28;20043;-73
2023/05/15 05:54:09;;;;;;;6.00;2.43;;;;;;;;;;8150780;28;20035;-73
2023/05/15 05:58:09;;;;;;;2.83;2.20;;;;;;;;;;8152587;28;20027;-73
2023/05/15 06:02:10;;;;;;;7.55;2.70;;;;;;;;;;8151951;28;20159;-73
2023/05/15 06:06:11;;;;;;;3.00;2.70;;;;;;;;;;8155692;28;20867;-73
2023/05/15 06:10:11;;;;;;;3.28;2.50;;;;;;;;;;8161600;28;20546;-73
2023/05/15 06:14:12;;;;;;;4.40;2.90;;;;;;;;;;8163129;28;20027;-73
2023/05/15 06:18:12;;;;;;;3.78;3.30;;;;;;;;;;8162350;28;20936;-73
2023/05/15 06:22:12;;;;;;;4.63;3.90;;;;;;;;;;8164259;28;20598;-73
2023/05/15 06:26:12;;;;;;;5.97;4.35;;;;;;;;;;8160638;28;21085;-74
2023/05/15 06:30:13;;;;;;;5.97;4.05;;;;;;;;;;8163123;28;20034;-73
2023/05/15 06:34:13;;;;;;;7.03;4.78;;;;;;;;;;8160953;28;20961;-73
2023/05/15 06:38:13;;;;;;;6.15;5.47;;;;;;;;;;8160347;28;20742;-73
2023/05/15 06:42:14;;;;;;;10.88;7.78;;;;;;;;;;8159910;28;20163;-74
2023/05/15 06:46:15;;;;;;;13.75;9.38;;;;;;;;;;8164324;28;20102;-73
2023/05/15 06:50:16;;;;;;;14.25;9.05;;;;;;;;;;8160746;28;20637;-74
2023/05/15 06:54:16;;;;;;;9.32;6.53;;;;;;;;;;8159629;28;20027;-74
2023/05/15 06:58:16;;;;;;;6.68;5.93;;;;;;;;;;8161247;28;20069;-74
2023/05/15 07:02:17;;;;;;;11.63;6.60;;;;;;;;;;8160444;28;20031;-74
2023/05/15 07:06:17;;;;;;;11.95;8.98;;;;;;;;;;8157983;28;20031;-74
2023/05/15 07:10:17;;;;;;;11.20;9.15;;;;;;;;;;8160915;28;20027;-74
2023/05/15 07:14:17;;;;;;;10.95;9.20;;;;;;;;;;8175237;28;20024;-74
2023/05/15 07:18:18;;;;;;;12.55;9.60;;;;;;;;;;8156987;28;20331;-74
2023/05/15 07:22:18;;;;;;;13.32;9.65;;;;;;;;;;8168776;28;20520;-75
2023/05/15 07:26:18;;;;;;;10.23;9.15;;;;;;;;;;8159699;28;20016;-75
2023/05/15 07:30:19;;;;;;;11.20;8.48;;;;;;;;;;8160452;28;20149;-75
2023/05/15 07:34:19;;;;;;;8.63;7.70;;;;;;;;;;8159288;28;20035;-74
2023/05/15 07:38:19;;;;;;;9.05;7.75;;;;;;;;;;8157869;28;20023;-74
2023/05/15 07:42:20;;;;;;;12.15;8.63;;;;;;;;;;8160833;28;20031;-75
2023/05/15 07:46:20;;;;;;;11.27;9.70;;;;;;;;;;8169628;28;20031;-74
2023/05/15 07:50:20;;;;;;;13.77;10.82;;;;;;;;;;8188790;28;20066;-74
2023/05/15 07:54:20;;;;;;;14.18;11.68;;;;;;;;;;8185778;28;20101;-75
2023/05/15 07:58:22;;;;;;;15.23;12.40;;;;;;;;;;8188426;28;20081;-74
2023/05/15 08:02:22;;;;;;;14.10;12.60;;;;;;;;;;8172290;28;20032;-75
2023/05/15 08:06:22;;;;;;;15.30;13.23;;;;;;;;;;8175027;28;20130;-75
2023/05/15 08:10:22;;;;;;;17.40;13.63;;;;;;;;;;8157084;28;20031;-75
2023/05/15 08:14:23;;;;;;;15.15;13.52;;;;;;;;;;8155478;28;20042;-74
2023/05/15 08:18:23;;;;;;;16.85;13.23;;;;;;;;;;8165641;28;20476;-74
2023/05/15 08:22:23;;;;;;;15.85;12.50;;;;;;;;;;8172490;28;20033;-74
2023/05/15 08:26:23;;;;;;;15.68;12.75;;;;;;;;;;8155656;28;20037;-74
2023/05/15 08:30:23;;;;;;;16.40;13.30;;;;;;;;;;8154593;28;20050;-74
2023/05/15 08:34:24;;;;;;;14.75;12.57;;;;;;;;;;8156793;28;20035;-74
2023/05/15 08:38:24;;;;;;;16.63;13.35;;;;;;;;;;8156722;28;20630;-74
2023/05/15 08:42:31;;;;;;;15.65;12.45;;;;;;;;;;8167076;29;20027;-74
2023/05/15 08:46:31;;;;;;;14.93;13.05;;;;;;;;;;8158410;28;20668;-75
2023/05/15 08:50:32;;;;;;;15.80;12.70;;;;;;;;;;8155086;28;20474;-74
2023/05/15 08:54:33;;;;;;;14.05;11.48;;;;;;;;;;8155575;28;20149;-75
2023/05/15 08:58:33;;;;;;;13.35;11.25;;;;;;;;;;8159037;28;20686;-74
2023/05/15 09:02:34;;;;;;;14.57;11.67;;;;;;;;;;8159980;28;20989;-74
2023/05/15 09:06:36;;;;;;;11.98;10.40;;;;;;;;;;8155276;28;20133;-75
2023/05/15 09:10:36;;;;;;;11.85;10.18;;;;;;;;;;8155039;28;20019;-74
2023/05/15 09:14:36;;;;;;;11.03;9.50;;;;;;;;;;8153916;28;20054;-75
2023/05/15 09:18:37;;;;;;;11.98;10.40;;;;;;;;;;8159818;28;20314;-75
2023/05/15 09:22:38;;;;;;;14.07;11.45;;;;;;;;;;8154101;28;20641;-75
2023/05/15 09:26:38;;;;;;;13.35;11.25;;;;;;;;;;8153507;28;20666;-75
2023/05/15 09:30:41;;;;;;;13.38;9.85;;;;;;;;;;8152437;28;20106;-74
2023/05/15 09:34:41;;;;;;;;;;;;;;;;;;8154275;28;20030;-74
2023/05/15 09:38:42;;;;;;;13.18;11.05;;;;;;;;;;8161450;29;19914;-75
2023/05/15 09:42:50;;;;;;;16.95;12.20;;;;;;;;;;8155965;28;20027;-75
2023/05/15 09:46:50;;;;;;;13.57;11.05;;;;;;;;;;8159717;28;20042;-75
2023/05/15 09:50:50;;;;;;;12.23;10.93;;;;;;;;;;8153925;28;20027;-75
2023/05/15 09:54:51;;;;;;;13.60;11.30;;;;;;;;;;8172420;28;20322;-75
2023/05/15 09:58:52;;;;;;;12.45;11.13;;;;;;;;;;8155047;28;20654;-75
2023/05/15 10:02:56;;;;;;;13.32;11.60;;;;;;;;;;8164530;28;20036;-76
2023/05/15 10:06:56;;;;;;;11.07;9.95;;;;;;;;;;8162447;28;20074;-75
2023/05/15 10:10:58;;;;;;;11.70;9.88;;;;;;;;;;8155220;28;20031;-75
2023/05/15 10:14:59;;;;;;;12.27;8.95;;;;;;;;;;8156532;28;20027;-75
2023/05/15 10:19:02;;;;;;;16.42;9.02;;;;;;;;;;8182637;28;20121;-75
2023/05/15 10:23:02;;;;;;;;;;;;;;;;;;8186076;28;20138;-75
2023/05/15 10:27:03;;;;;;;11.27;9.30;;;;;;;;;;8185461;28;19957;-75
2023/05/15 10:31:03;;;;;;;9.98;7.45;;;;;;;;;;8175963;28;20142;-76
2023/05/15 10:35:04;;;;;;;12.05;7.72;;;;;;;;;;8160861;28;20019;-76
2023/05/15 10:39:05;;;;;;;9.50;7.97;;;;;;;;;;8156666;28;20070;-75
2023/05/15 10:43:07;;;;;;;10.30;8.20;;;;;;;;;;8153902;29;20026;-75
2023/05/15 10:47:08;;;;;;;13.98;8.80;;;;;;;;;;8154016;28;20622;-75
2023/05/15 10:51:15;;;;;;;16.02;9.88;;;;;;;;;;8151905;29;20023;-76
2023/05/15 10:55:16;;;;;;;7.28;3.90;;;;;;;;;;8156458;28;20110;-75
2023/05/15 10:59:16;;;;;;;5.15;3.30;;;;;;;;;;8172539;28;20098;-75
2023/05/15 11:03:34;;;;;;;4.85;2.50;;;;;;;;;;8158934;28;20942;-75
2023/05/15 11:07:34;;;;;;;11.82;2.80;;;;;;;;;;8164606;28;20034;-74
2023/05/15 11:11:54;;;;;;;9.93;2.90;;;;;;;;;;8156429;28;20877;-74
2023/05/15 11:15:56;;;;;;;9.02;3.10;;;;;;;;;;8167814;28;20548;-74
2023/05/15 11:19:59;;;;;;;5.30;2.90;;;;;;;;;;8158491;28;21035;-74
2023/05/15 11:24:03;;;;;;;7.38;2.20;;;;;;;;;;8159365;28;20026;-74
2023/05/15 11:28:04;;;;;;;5.18;2.25;;;;;;;;;;8157952;29;20031;-74
2023/05/15 11:32:24;;;;;;;2.20;2.00;;;;;;;;;;8161083;28;20050;-74
2023/05/15 11:36:24;;;;;;;3.05;2.63;;;;;;;;;;8159614;28;20039;-75
2023/05/15 11:40:25;;;;;;;3.40;2.60;;;;;;;;;;8157954;28;20057;-74
2023/05/15 11:44:26;;;;;;;3.65;2.72;;;;;;;;;;8154903;28;20052;-74
2023/05/15 11:48:30;;;;;;;3.03;2.72;;;;;;;;;;8189190;28;20130;-74
2023/05/15 11:52:30;;;;;;;3.85;2.70;;;;;;;;;;8187332;28;20065;-74
2023/05/15 11:56:31;;;;;;;3.95;3.55;;;;;;;;;;8187161;28;20035;-74
2023/05/15 12:00:31;;;;;;;5.82;4.32;;;;;;;;;;8182562;28;20047;-74
2023/05/15 12:04:32;;;;;;;6.00;4.22;;;;;;;;;;8152115;28;20118;-75
2023/05/15 12:08:34;;;;;;;10.20;6.63;;;;;;;;;;8162703;29;20038;-74
2023/05/15 12:12:35;;;;;;;10.10;6.07;;;;;;;;;;8156126;28;20023;-74
2023/05/15 12:16:35;;;;;;;7.35;6.20;;;;;;;;;;8156022;28;20047;-74
2023/05/15 12:20:37;;;;;;;6.30;5.70;;;;;;;;;;8153710;28;20025;-75
2023/05/15 12:24:38;;;;;;;7.95;5.93;;;;;;;;;;8156755;28;20385;-74
2023/05/15 12:28:38;;;;;;;7.20;5.55;;;;;;;;;;8161359;28;20857;-74
2023/05/15 12:32:39;;;;;;;6.97;5.75;;;;;;;;;;8144970;28;20036;-74
2023/05/15 12:36:42;;;;;;;7.35;4.95;;;;;;;;;;8153838;28;20900;-74
2023/05/15 12:40:42;;;;;;;;;;;;;;;;;;8161116;28;20054;-74
2023/05/15 12:44:42;;;;;;;5.65;4.45;;;;;;;;;;8163447;28;20310;-74
2023/05/15 12:48:43;;;;;;;6.63;4.30;;;;;;;;;;8150535;28;20063;-74
2023/05/15 12:52:49;;;;;;;4.63;4.22;;;;;;;;;;8151536;28;20029;-74
2023/05/15 12:56:49;;;;;;;5.45;4.80;;;;;;;;;;8155417;28;20019;-74
2023/05/15 13:00:50;;;;;;;7.10;5.45;;;;;;;;;;8152092;28;20952;-74
2023/05/15 13:04:50;;;;;;;6.28;4.55;;;;;;;;;;8161119;28;20042;-75
2023/05/15 13:08:52;;;;;;;4.20;3.85;;;;;;;;;;8151507;28;20023;-74
2023/05/15 13:12:53;;;;;;;5.67;4.17;;;;;;;;;;8145486;28;20035;-75
2023/05/15 13:16:57;;;;;;;3.95;3.55;;;;;;;;;;8145489;28;20825;-74
2023/05/15 13:20:58;;;;;;;6.85;4.22;;;;;;;;;;8143097;28;20937;-75
2023/05/15 13:24:58;;;;;;;6.15;3.90;;;;;;;;;;8156064;28;20015;-75
2023/05/15 13:28:58;;;;;;;5.88;3.20;;;;;;;;;;8148238;28;20093;-74
2023/05/15 13:32:58;;;;;;;4.35;3.35;;;;;;;;;;8151342;28;20047;-74
2023/05/15 13:36:59;;;;;;;3.20;2.67;;;;;;;;;;8148556;28;20031;-74
2023/05/15 13:40:59;;;;;;;4.63;3.30;;;;;;;;;;8148612;28;20267;-74
2023/05/15 13:44:59;;;;;;;3.58;3.08;;;;;;;;;;8152796;28;20035;-74
2023/05/15 13:48:59;;;;;;;3.50;3.17;;;;;;;;;;8180225;28;20953;-74
2023/05/15 13:53:00;;;;;;;3.87;3.00;;;;;;;;;;8180447;28;20057;-74
2023/05/15 13:57:00;;;;;;;3.45;2.90;;;;;;;;;;8180255;28;20026;-74
2023/05/15 14:01:03;;;;;;;2.95;2.60;;;;;;;;;;8169133;28;20040;-74
2023/05/15 14:05:04;;;;;;;4.88;2.78;;;;;;;;;;8151329;28;20292;-74
2023/05/15 14:09:06;;;;;;;4.97;2.60;;;;;;;;;;8158883;28;20034;-74
2023/05/15 14:13:06;;;;;;;4.95;2.53;;;;;;;;;;8150496;29;20738;-74
2023/05/15 14:17:06;;;;;;;5.18;2.70;;;;;;;;;;8162696;28;20071;-74
2023/05/15 14:21:06;;;;;;;3.15;2.50;;;;;;;;;;8186554;28;20030;-75
2023/05/15 14:25:07;;;;;;;4.70;2.70;;;;;;;;;;8177809;28;20759;-75
2023/05/15 14:29:08;;;;;;;7.22;2.53;;;;;;;;;;8184712;28;20019;-73
2023/05/15 14:33:08;;;;;;;6.70;4.47;;;;;;;;;;8191560;28;20042;-74
2023/05/15 14:37:08;;;;;;;8.75;4.47;;;;;;;;;;8193414;28;20069;-73
2023/05/15 14:41:08;;;;;;;6.20;4.43;;;;;;;;;;8185941;28;20033;-73
2023/05/15 14:45:09;;;;;;;9.37;5.10;;;;;;;;;;8195101;28;20058;-74
2023/05/15 14:49:09;;;;;;;7.50;4.82;;;;;;;;;;8210449;28;20028;-73
2023/05/15 14:53:09;;;;;;;7.03;4.57;;;;;;;;;;8197002;28;20034;-74
2023/05/15 14:57:10;;;;;;;5.82;4.30;;;;;;;;;;8194814;28;20085;-73
2023/05/15 15:01:10;;;;;;;6.13;4.10;;;;;;;;;;8187316;28;20070;-74
2023/05/15 15:05:10;;;;;;;7.55;5.35;;;;;;;;;;8187585;28;20062;-74
2023/05/15 15:09:10;;;;;;;7.60;4.53;;;;;;;;;;8190725;28;20038;-74
2023/05/15 15:13:12;;;;;;;5.38;4.88;;;;;;;;;;8184429;28;20090;-74
2023/05/15 15:17:12;;;;;;;5.45;4.57;;;;;;;;;;8185303;28;21259;-74
2023/05/15 15:21:13;;;;;;;8.63;4.57;;;;;;;;;;8186560;28;20048;-73
2023/05/15 15:25:13;;;;;;;8.50;4.43;;;;;;;;;;8186617;28;20106;-73
2023/05/15 15:29:14;;;;;;;5.78;4.22;;;;;;;;;;8183324;28;20817;-74
2023/05/15 15:33:14;;;;;;;5.57;4.15;;;;;;;;;;8184580;28;20070;-73
2023/05/15 15:37:15;;;;;;;8.05;4.43;;;;;;;;;;8182447;28;20105;-73
2023/05/15 15:41:15;;;;;;;7.32;4.22;;;;;;;;;;8187437;28;20696;-72
2023/05/15 15:45:15;;;;;;;7.25;4.20;;;;;;;;;;8184799;28;20129;-73
2023/05/15 15:49:16;;;;;;;4.43;3.85;;;;;;;;;;8189394;28;20031;-73
2023/05/15 15:53:16;;;;;;;5.07;3.92;;;;;;;;;;8195599;28;20069;-73
2023/05/15 15:57:16;;;;;;;6.50;4.40;;;;;;;;;;8183183;28;20034;-73
2023/05/15 16:01:17;;;;;;;6.13;4.30;;;;;;;;;;8187949;28;20035;-73
2023/05/15 16:05:17;;;;;;;5.03;3.60;;;;;;;;;;8199829;28;20187;-73
2023/05/15 16:09:18;;;;;;;5.45;3.42;;;;;;;;;;8184652;28;20515;-74
2023/05/15 16:13:18;;;;;;;4.10;3.22;;;;;;;;;;8182648;28;20023;-73
2023/05/15 16:17:19;;;;;;;5.05;3.75;;;;;;;;;;8192115;28;20089;-73
2023/05/15 16:21:20;;;;;;;7.53;3.70;;;;;;;;;;8190963;28;20029;-73
2023/05/15 16:25:20;;;;;;;6.05;2.88;;;;;;;;;;8193058;28;20049;-73
2023/05/15 16:29:20;;;;;;;4.27;3.37;;;;;;;;;;8182337;28;20452;-73
2023/05/15 16:33:21;;;;;;;3.95;3.50;;;;;;;;;;8187387;28;20704;-73
2023/05/15 16:37:21;;;;;;;5.70;4.13;;;;;;;;;;8192159;28;20089;-73
2023/05/15 16:41:21;;;;;;;7.75;3.38;;;;;;;;;;8185640;28;20023;-73
2023/05/15 16:45:21;;;;;;;4.78;3.70;;;;;;;;;;8197606;28;20038;-73
2023/05/15 16:49:22;;;;;;;4.65;3.70;;;;;;;;;;8154494;28;20116;-73
2023/05/15 16:53:22;;;;;;;5.25;3.42;;;;;;;;;;8158838;28;20069;-72
2023/05/15 16:57:22;;;;;;;5.37;3.73;;;;;;;;;;8155965;29;20929;-72
2023/05/15 17:01:22;;;;;;;6.80;4.15;;;;;;;;;;8158941;28;20082;-73
2023/05/15 17:05:22;;;;;;;5.13;3.67;;;;;;;;;;8157416;28;20595;-72
2023/05/15 17:09:22;;;;;;;5.22;3.67;;;;;;;;;;8155533;28;20059;-72
2023/05/15 17:13:23;;;;;;;5.97;3.50;;;;;;;;;;8154992;28;20036;-72
2023/05/15 17:17:24;;;;;;;7.53;3.60;;;;;;;;;;8171730;28;20050;-72
2023/05/15 17:21:24;;;;;;;7.32;3.70;;;;;;;;;;8193525;28;20377;-72
2023/05/15 17:25:24;;;;;;;6.13;3.53;;;;;;;;;;8188438;28;20027;-73
2023/05/15 17:29:25;;;;;;;3.42;2.97;;;;;;;;;;8183510;28;20065;-72
2023/05/15 17:33:25;;;;;;;5.25;3.72;;;;;;;;;;8153010;28;20143;-73
2023/05/15 17:37:25;;;;;;;5.38;3.70;;;;;;;;;;8152633;28;20035;-73
2023/05/15 17:41:25;;;;;;;3.22;2.90;;;;;;;;;;8148770;28;20019;-73
2023/05/15 17:45:26;;;;;;;5.97;2.90;;;;;;;;;;8152951;28;20472;-73
2023/05/15 17:49:26;;;;;;;6.57;3.37;;;;;;;;;;8147116;28;20155;-73
2023/05/15 17:53:26;;;;;;;5.90;3.20;;;;;;;;;;8160803;28;20027;-73
2023/05/15 17:57:27;;;;;;;6.30;3.25;;;;;;;;;;8144691;28;20151;-72
2023/05/15 18:01:27;;;;;;;4.13;3.20;;;;;;;;;;8150880;28;20070;-72
2023/05/15 18:05:28;;;;;;;4.28;3.40;;;;;;;;;;8155844;28;20742;-72
2023/05/15 18:09:28;;;;;;;6.60;3.23;;;;;;;;;;8168742;28;20042;-72
2023/05/15 18:13:28;;;;;;;6.13;3.78;;;;;;;;;;8153593;28;20030;-73
2023/05/15 18:17:28;;;;;;;4.60;3.53;;;;;;;;;;8156894;28;20130;-72
2023/05/15 18:21:29;;;;;;;5.78;3.75;;;;;;;;;;8161442;28;20070;-72
2023/05/15 18:25:29;;;;;;;6.18;3.78;;;;;;;;;;8155130;28;20102;-73
2023/05/15 18:29:29;;;;;;;5.40;3.65;;;;;;;;;;8160016;28;20042;-74
2023/05/15 18:33:31;;;;;;;5.32;3.05;;;;;;;;;;8155993;28;20035;-73
2023/05/15 18:37:32;;;;;;;5.30;3.38;;;;;;;;;;8155319;28;20035;-73
2023/05/15 18:41:32;;;;;;;6.53;3.15;;;;;;;;;;8156345;28;20556;-72
2023/05/15 18:45:32;;;;;;;4.10;3.00;;;;;;;;;;8155718;28;20035;-72
2023/05/15 18:49:33;;;;;;;3.00;2.77;;;;;;;;;;8166193;28;20534;-73
2023/05/15 18:53:33;;;;;;;3.17;2.70;;;;;;;;;;8156276;28;20370;-72
2023/05/15 18:57:33;;;;;;;3.40;2.97;;;;;;;;;;8156289;28;20027;-73
2023/05/15 19:01:33;;;;;;;3.73;3.10;;;;;;;;;;8157390;28;21227;-73
2023/05/15 19:05:34;;;;;;;4.13;2.97;;;;;;;;;;8161900;28;20051;-72
2023/05/15 19:09:34;;;;;;;3.40;2.90;;;;;;;;;;8154036;28;20155;-72
2023/05/15 19:13:35;;;;;;;4.95;2.92;;;;;;;;;;8154546;28;20019;-72
2023/05/15 19:17:35;;;;;;;8.50;3.10;;;;;;;;;;8156371;28;20035;-72
2023/05/15 19:21:36;;;;;;;3.40;3.03;;;;;;;;;;8156426;28;20122;-72
2023/05/15 19:25:36;;;;;;;4.22;3.22;;;;;;;;;;8159551;28;20074;-73
2023/05/15 19:29:37;;;;;;;8.55;4.25;;;;;;;;;;8152568;28;20854;-72
2023/05/15 19:33:37;;;;;;;6.33;4.00;;;;;;;;;;8158649;28;20118;-73
2023/05/15 19:37:37;;;;;;;7.43;4.40;;;;;;;;;;8152337;28;20347;-72
2023/05/15 19:41:37;;;;;;;9.25;5.47;;;;;;;;;;8153240;28;20054;-72
2023/05/15 19:45:38;;;;;;;10.02;6.60;;;;;;;;;;8162050;28;20402;-72
2023/05/15 19:49:38;;;;;;;9.40;7.25;;;;;;;;;;8162456;28;20139;-73
2023/05/15 19:53:39;;;;;;;8.85;7.53;;;;;;;;;;8163392;28;20024;-73
2023/05/15 19:57:39;;;;;;;9.73;7.88;;;;;;;;;;8155988;28;20074;-71
2023/05/15 20:01:39;;;;;;;12.03;8.70;;;;;;;;;;8154414;28;20125;-71
2023/05/15 20:05:40;;;;;;;16.15;9.75;;;;;;;;;;8156844;28;20266;-72
2023/05/15 20:09:40;;;;;;;12.23;8.93;;;;;;;;;;8152155;28;20023;-72
2023/05/15 20:13:40;;;;;;;11.48;9.25;;;;;;;;;;8160041;28;20650;-72
2023/05/15 20:17:41;;;;;;;11.27;8.32;;;;;;;;;;8158881;28;20105;-72
2023/05/15 20:21:41;;;;;;;14.40;8.88;;;;;;;;;;8154897;28;20142;-72
2023/05/15 20:25:41;;;;;;;8.10;7.35;;;;;;;;;;8162339;28;20062;-72
2023/05/15 20:29:42;;;;;;;8.43;6.60;;;;;;;;;;8179733;28;20057;-71
2023/05/15 20:33:42;;;;;;;6.90;5.40;;;;;;;;;;8154703;28;20579;-71
2023/05/15 20:37:42;;;;;;;5.85;5.18;;;;;;;;;;8152650;28;20634;-72
2023/05/15 20:41:42;;;;;;;9.18;4.65;;;;;;;;;;8163753;28;20126;-72
2023/05/15 20:45:42;;;;;;;6.65;4.90;;;;;;;;;;8155921;28;20098;-72
2023/05/15 20:49:49;;;;;;;10.05;4.63;;;;;;;;;;8322554;28;22330;-61
2023/05/15 20:53:49;;;;;;;6.40;4.80;;;;;;;;;;8323496;28;20773;-60
2023/05/15 20:57:50;;;;;;;6.80;4.60;;;;;;;;;;8307764;28;20017;-61
2023/05/15 21:01:50;;;;;;;6.53;4.47;;;;;;;;;;8288876;28;20037;-61
2023/05/15 21:05:51;;;;;;;5.97;4.40;;;;;;;;;;8290801;28;20514;-61
2023/05/15 21:09:51;;;;;;;5.20;3.90;;;;;;;;;;8286867;28;20033;-61
2023/05/15 21:13:52;;;;;;;5.88;4.05;;;;;;;;;;8289496;28;20029;-60
2023/05/15 21:17:52;;;;;;;7.88;4.63;;;;;;;;;;8288520;28;20060;-61
2023/05/15 21:21:52;;;;;;;6.93;4.57;;;;;;;;;;8290480;28;20102;-61
2023/05/15 21:25:52;;;;;;;5.83;5.13;;;;;;;;;;8289433;28;20025;-61
2023/05/15 21:29:52;;;;;;;6.55;5.53;;;;;;;;;;8290600;28;20075;-61
2023/05/15 21:33:53;;;;;;;7.60;6.03;;;;;;;;;;8290002;28;20026;-60
2023/05/15 21:37:54;;;;;;;7.32;5.50;;;;;;;;;;8287627;28;20207;-60
2023/05/15 21:41:54;;;;;;;10.30;6.85;;;;;;;;;;8291257;28;20108;-61
2023/05/15 21:45:54;;;;;;;10.32;7.28;;;;;;;;;;8287756;28;20140;-61
2023/05/15 21:49:55;;;;;;;11.77;8.82;;;;;;;;;;8287894;28;20192;-60
2023/05/15 21:53:55;;;;;;;10.93;9.02;;;;;;;;;;8288871;28;20017;-60
2023/05/15 21:57:56;;;;;;;14.23;10.50;;;;;;;;;;8286067;28;20034;-60
2023/05/15 22:01:56;;;;;;;13.88;11.50;;;;;;;;;;8266318;28;20065;-60
2023/05/15 22:05:56;;;;;;;15.80;11.75;;;;;;;;;;8267671;28;20033;-60
2023/05/15 22:09:56;;;;;;;14.48;11.55;;;;;;;;;;8266305;28;20025;-60
2023/05/15 22:13:56;;;;;;;12.73;10.98;;;;;;;;;;8264803;28;20032;-60
2023/05/15 22:17:59;;;;;;;17.60;13.40;;;;;;;;;;8264980;28;20041;-60
2023/05/15 22:22:03;;;;;;;18.13;14.13;;;;;;;;;;8266310;28;20276;-60
2023/05/15 22:26:03;;;;;;;20.65;15.02;;;;;;;;;;8267110;28;20095;-60
2023/05/15 22:30:03;;;;;;;24.90;17.77;;;;;;;;;;8267030;28;20084;-61
2023/05/15 22:34:04;;;;;;;22.92;16.90;;;;;;;;;;8266084;28;20054;-60
2023/05/15 22:38:05;;;;;;;28.33;19.20;;;;;;;;;;8265549;28;20042;-60
2023/05/15 22:42:06;;;;;;;28.58;19.42;;;;;;;;;;8266930;28;20054;-61
2023/05/15 22:46:06;;;;;;;23.55;17.73;;;;;;;;;;8261969;28;20065;-60
2023/05/15 22:50:06;;;;;;;23.58;18.33;;;;;;;;;;8265729;28;20022;-60
2023/05/15 22:54:06;;;;;;;22.63;18.00;;;;;;;;;;8267162;28;20041;-61
2023/05/15 22:58:07;;;;;;;23.65;19.10;;;;;;;;;;8264975;28;20139;-60
2023/05/15 23:02:07;;;;;;;25.30;19.83;;;;;;;;;;8265212;28;20135;-60
2023/05/15 23:06:07;;;;;;;24.77;19.70;;;;;;;;;;8265880;28;20026;-60
2023/05/15 23:10:07;;;;;;;27.08;20.42;;;;;;;;;;8262545;28;20046;-61
2023/05/15 23:14:08;;;;;;;27.02;19.42;;;;;;;;;;8266348;28;20736;-61
2023/05/15 23:18:08;;;;;;;27.98;19.38;;;;;;;;;;8264222;28;20046;-61
2023/05/15 23:22:09;;;;;;;27.20;19.55;;;;;;;;;;8265000;28;20033;-60
2023/05/15 23:26:10;;;;;;;27.35;19.13;;;;;;;;;;8262299;28;20033;-61
2023/05/15 23:30:11;;;;;;;29.63;21.05;;;;;;;;;;8263558;28;20108;-61
2023/05/15 23:34:11;;;;;;;28.27;19.92;;;;;;;;;;8262587;28;20025;-60
2023/05/15 23:38:11;;;;;;;28.30;19.33;;;;;;;;;;8261981;28;20116;-60
2023/05/15 23:42:11;;;;;;;25.03;17.70;;;;;;;;;;8262134;28;20801;-60
2023/05/15 23:46:11;;;;;;;23.87;18.43;;;;;;;;;;8264435;28;20277;-61
2023/05/15 23:50:12;;;;;;;29.00;20.13;;;;;;;;;;8261844;28;20268;-60
2023/05/15 23:54:12;;;;;;;27.90;19.65;;;;;;;;;;8263614;28;20026;-60
2023/05/15 23:58:12;;;;;;;25.60;18.85;;;;;;;;;;8261950;28;20024;-60
